Time;durP1;ratioP1;P1;durP2;ratioP2;P2;SDS_P1;SDS_P2;PMS_P1;PMS_P2;Temp;Humidity;BMP_temperature;BMP_pressure;BME280_temperature;BME280_humidity;BME280_pressure;Samples;Min_cycle;Max_cycle;Signal;HPM_P1;HPM_P2
2022/09/30 00:01:28;;;;;;;;;;;16.70;96.20;;;;;;5036327;28;20273;-65
2022/09/30 00:03:55;;;;;;;;;;;16.70;96.20;;;;;;5037217;28;20291;-65
2022/09/30 00:06:25;;;;;;;;;;;16.70;96.10;;;;;;5037254;28;19909;-64
2022/09/30 00:08:51;;;;;;;;;;;16.70;96.10;;;;;;5037257;28;19920;-65
2022/09/30 00:11:21;;;;;;;;;;;16.60;96.10;;;;;;5037349;28;19913;-65
2022/09/30 00:13:47;;;;;;;;;;;16.60;96.10;;;;;;5036413;28;19975;-65
2022/09/30 00:16:16;;;;;;;;;;;16.60;96.10;;;;;;5039960;28;19921;-65
2022/09/30 00:18:42;;;;;;;;;;;16.60;96.10;;;;;;5037741;28;20286;-64
2022/09/30 00:21:09;;;;;;;;;;;16.60;96.00;;;;;;5038775;28;19909;-65
2022/09/30 00:23:36;;;;;;;;;;;16.60;96.00;;;;;;5039557;28;19909;-65
2022/09/30 00:26:04;;;;;;;;;;;16.60;96.10;;;;;;5039596;28;20002;-65
2022/09/30 00:28:30;;;;;;;;;;;16.60;96.00;;;;;;5039346;28;20249;-65
2022/09/30 00:30:59;;;;;;;;;;;16.60;96.00;;;;;;5039764;28;19913;-65
2022/09/30 00:33:25;;;;;;;;;;;16.60;96.00;;;;;;5037760;28;19944;-65
2022/09/30 00:35:50;;;;;;;;;;;16.60;96.10;;;;;;5037938;28;19963;-65
2022/09/30 00:38:16;;;;;;;;;;;16.50;96.00;;;;;;5039099;28;19909;-65
2022/09/30 00:40:42;;;;;;;;;;;16.50;96.00;;;;;;5039843;28;19971;-64
2022/09/30 00:43:19;;;;;;;;;;;16.50;96.00;;;;;;5037964;28;19975;-65
2022/09/30 00:45:55;;;;;;;;;;;16.50;96.00;;;;;;5039651;28;19912;-64
2022/09/30 00:48:30;;;;;;;;;;;16.50;95.90;;;;;;5038796;28;20297;-65
2022/09/30 00:50:55;;;;;;;;;;;16.50;95.90;;;;;;5039811;28;19913;-65
2022/09/30 00:53:24;;;;;;;;;;;16.50;95.90;;;;;;5039035;28;19909;-65
2022/09/30 00:55:55;;;;;;;;;;;16.50;95.80;;;;;;5039446;28;20347;-65
2022/09/30 00:58:34;;;;;;;;;;;16.50;95.70;;;;;;5039490;28;19916;-65
2022/09/30 01:01:01;;;;;;;;;;;16.50;95.60;;;;;;5038854;28;19909;-65
2022/09/30 01:03:28;;;;;;;;;;;16.50;95.60;;;;;;5038846;28;19944;-65
2022/09/30 01:05:57;;;;;;;;;;;16.50;95.60;;;;;;5039436;28;20302;-65
2022/09/30 01:08:25;;;;;;;;;;;16.50;95.50;;;;;;5037556;28;19908;-65
2022/09/30 01:10:54;;;;;;;;;;;16.50;95.50;;;;;;5037331;28;19912;-65
2022/09/30 01:13:22;;;;;;;;;;;16.50;95.50;;;;;;5037286;28;19909;-65
2022/09/30 01:15:51;;;;;;;;;;;16.50;95.40;;;;;;5038038;28;20143;-65
2022/09/30 01:18:25;;;;;;;;;;;16.50;95.60;;;;;;5038729;28;20185;-65
2022/09/30 01:20:51;;;;;;;;;;;16.50;95.30;;;;;;5038332;28;20172;-64
2022/09/30 01:23:31;;;;;;;;;;;16.50;95.30;;;;;;5037837;28;20311;-65
2022/09/30 01:25:57;;;;;;;;;;;16.50;95.30;;;;;;5038052;28;19905;-65
2022/09/30 01:28:22;;;;;;;;;;;16.50;95.30;;;;;;5037157;28;20130;-64
2022/09/30 01:31:00;;;;;;;;;;;16.50;95.20;;;;;;5037446;28;19913;-64
2022/09/30 01:33:47;;;;;;;;;;;16.50;95.20;;;;;;5037107;28;19958;-65
2022/09/30 01:36:16;;;;;;;;;;;16.50;95.20;;;;;;5037603;28;20322;-65
2022/09/30 01:38:59;;;;;;;;;;;16.50;95.10;;;;;;5038308;28;19909;-65
2022/09/30 01:41:37;;;;;;;;;;;16.50;95.10;;;;;;5039504;28;19909;-65
2022/09/30 01:44:11;;;;;;;;;;;16.50;95.10;;;;;;5038332;28;19995;-65
2022/09/30 01:46:43;;;;;;;;;;;16.40;95.10;;;;;;5037772;28;19915;-65
2022/09/30 01:49:14;;;;;;;;;;;16.40;95.00;;;;;;5036884;28;19948;-65
2022/09/30 01:51:44;;;;;;;;;;;16.40;95.00;;;;;;5035562;28;19913;-65
2022/09/30 01:54:12;;;;;;;;;;;16.40;95.00;;;;;;5034358;28;20219;-65
2022/09/30 01:56:41;;;;;;;;;;;16.40;95.00;;;;;;5033441;28;19909;-65
2022/09/30 01:59:11;;;;;;;;;;;16.40;95.00;;;;;;5051112;28;19909;-65
2022/09/30 02:01:40;;;;;;;;;;;16.40;95.00;;;;;;5032561;28;19935;-65
2022/09/30 02:04:10;;;;;;;;;;;16.40;95.00;;;;;;5032781;28;19909;-65
2022/09/30 02:06:38;;;;;;;;;;;16.40;95.00;;;;;;5033006;28;19920;-65
2022/09/30 02:09:06;;;;;;;;;;;16.30;94.90;;;;;;5034092;28;20007;-65
2022/09/30 02:11:38;;;;;;;;;;;16.30;94.90;;;;;;5035638;28;19913;-65
2022/09/30 02:14:07;;;;;;;;;;;16.30;95.00;;;;;;5035972;28;19913;-65
2022/09/30 02:16:36;;;;;;;;;;;16.30;95.00;;;;;;5035756;28;19909;-65
2022/09/30 02:19:24;;;;;;;;;;;16.30;95.00;;;;;;5054137;28;19909;-65
2022/09/30 02:21:55;;;;;;;;;;;16.30;95.00;;;;;;5037153;28;19909;-65
2022/09/30 02:24:26;;;;;;;;;;;16.30;95.00;;;;;;5035583;28;20204;-65
2022/09/30 02:26:53;;;;;;;;;;;16.20;94.90;;;;;;5037053;28;20087;-65
2022/09/30 02:29:22;;;;;;;;;;;16.20;95.00;;;;;;5037164;28;20338;-65
2022/09/30 02:31:50;;;;;;;;;;;16.20;94.90;;;;;;5037417;28;20298;-64
2022/09/30 02:34:44;;;;;;;;;;;16.20;94.90;;;;;;5037169;28;20008;-65
2022/09/30 02:37:15;;;;;;;;;;;16.30;94.90;;;;;;5034884;28;19928;-65
2022/09/30 02:39:53;;;;;;;;;;;16.20;94.80;;;;;;5037933;28;20037;-65
2022/09/30 02:42:32;;;;;;;;;;;16.30;94.80;;;;;;5037422;28;20272;-65
2022/09/30 02:45:07;;;;;;;;;;;16.30;94.80;;;;;;5035746;28;19916;-65
2022/09/30 02:47:51;;;;;;;;;;;16.30;94.70;;;;;;5037689;28;19970;-65
2022/09/30 02:50:25;;;;;;;;;;;16.30;94.70;;;;;;5037698;28;19913;-65
2022/09/30 02:52:54;;;;;;;;;;;16.30;94.60;;;;;;5037938;28;19912;-65
2022/09/30 02:55:35;;;;;;;;;;;16.30;94.50;;;;;;5037380;28;19916;-65
2022/09/30 02:58:10;;;;;;;;;;;16.30;94.40;;;;;;5037987;28;19928;-65
2022/09/30 03:00:36;;;;;;;;;;;16.40;94.40;;;;;;5036609;28;19940;-65
2022/09/30 03:03:04;;;;;;;;;;;16.40;94.30;;;;;;5035483;28;20480;-64
2022/09/30 03:05:33;;;;;;;;;;;16.40;94.20;;;;;;5034863;28;19916;-65
2022/09/30 03:08:02;;;;;;;;;;;16.40;94.20;;;;;;5033711;28;19944;-65
2022/09/30 03:10:28;;;;;;;;;;;16.40;94.10;;;;;;5034360;28;19909;-65
2022/09/30 03:12:57;;;;;;;;;;;16.40;94.00;;;;;;5034750;28;19974;-64
2022/09/30 03:15:43;;;;;;;;;;;16.40;94.00;;;;;;5035329;28;19908;-64
2022/09/30 03:18:24;;;;;;;;;;;16.40;94.00;;;;;;5024367;28;20241;-65
2022/09/30 03:21:04;;;;;;;;;;;16.40;93.90;;;;;;5035178;28;20182;-65
2022/09/30 03:23:34;;;;;;;;;;;16.30;93.90;;;;;;5035835;28;20134;-64
2022/09/30 03:26:02;;;;;;;;;;;16.30;93.90;;;;;;5035283;28;20133;-65
2022/09/30 03:28:32;;;;;;;;;;;16.30;93.80;;;;;;5034306;28;19934;-64
2022/09/30 03:31:08;;;;;;;;;;;16.30;93.80;;;;;;5035440;28;20333;-65
2022/09/30 03:33:49;;;;;;;;;;;16.30;93.80;;;;;;5035144;28;20003;-65
2022/09/30 03:36:36;;;;;;;;;;;16.30;93.80;;;;;;5034460;28;19944;-65
2022/09/30 03:39:12;;;;;;;;;;;16.30;93.80;;;;;;5034151;28;19944;-65
2022/09/30 03:41:38;;;;;;;;;;;16.30;93.80;;;;;;5034937;28;20003;-65
2022/09/30 03:44:06;;;;;;;;;;;16.20;93.80;;;;;;5035230;28;20019;-65
2022/09/30 03:46:36;;;;;;;;;;;16.20;93.80;;;;;;5034561;28;19909;-65
2022/09/30 03:49:08;;;;;;;;;;;16.20;93.80;;;;;;5037052;28;20295;-65
2022/09/30 03:51:37;;;;;;;;;;;16.20;93.80;;;;;;5039445;28;20011;-65
2022/09/30 03:54:05;;;;;;;;;;;16.20;93.80;;;;;;5039196;28;19944;-65
2022/09/30 03:56:32;;;;;;;;;;;16.20;93.80;;;;;;5038355;28;19925;-65
2022/09/30 03:59:00;;;;;;;;;;;16.20;93.80;;;;;;5038316;28;19909;-65
2022/09/30 04:01:26;;;;;;;;;;;16.20;93.80;;;;;;5039281;28;20263;-64
2022/09/30 04:03:53;;;;;;;;;;;16.10;93.70;;;;;;5040230;28;20003;-65
2022/09/30 04:06:19;;;;;;;;;;;16.10;93.70;;;;;;5039021;28;19944;-65
2022/09/30 04:08:48;;;;;;;;;;;16.10;93.70;;;;;;5039539;28;19912;-65
2022/09/30 04:11:17;;;;;;;;;;;16.10;93.80;;;;;;5037830;28;19921;-65
2022/09/30 04:13:46;;;;;;;;;;;16.10;93.70;;;;;;5038799;28;19909;-64
2022/09/30 04:16:14;;;;;;;;;;;16.10;93.80;;;;;;5038055;28;19916;-65
2022/09/30 04:18:41;;;;;;;;;;;16.10;93.80;;;;;;5038282;28;20353;-65
2022/09/30 04:21:08;;;;;;;;;;;16.10;94.00;;;;;;5037639;28;20092;-65
2022/09/30 04:23:37;;;;;;;;;;;16.10;93.70;;;;;;5036015;28;19909;-65
2022/09/30 04:26:04;;;;;;;;;;;16.10;93.70;;;;;;5035523;28;19909;-65
2022/09/30 04:28:30;;;;;;;;;;;16.10;93.60;;;;;;5036398;28;19958;-64
2022/09/30 04:30:58;;;;;;;;;;;16.10;93.60;;;;;;5035695;28;20305;-65
2022/09/30 04:33:24;;;;;;;;;;;16.10;93.60;;;;;;5036458;28;19909;-65
2022/09/30 04:35:53;;;;;;;;;;;16.10;93.50;;;;;;5036485;28;20198;-64
2022/09/30 04:38:19;;;;;;;;;;;16.10;93.50;;;;;;5054699;28;19986;-65
2022/09/30 04:40:45;;;;;;;;;;;16.10;93.40;;;;;;5035329;28;19921;-64
2022/09/30 04:43:10;;;;;;;;;;;16.10;93.40;;;;;;5034033;28;20259;-64
2022/09/30 04:45:37;;;;;;;;;;;16.10;93.40;;;;;;5033867;28;20270;-65
2022/09/30 04:48:03;;;;;;;;;;;16.10;93.30;;;;;;5033139;28;19919;-65
2022/09/30 04:50:32;;;;;;;;;;;16.10;93.30;;;;;;5032631;28;19909;-65
2022/09/30 04:52:58;;;;;;;;;;;16.20;93.30;;;;;;5032375;28;19912;-64
2022/09/30 04:55:27;;;;;;;;;;;16.20;93.50;;;;;;5032359;28;19920;-64
2022/09/30 04:57:55;;;;;;;;;;;16.20;93.50;;;;;;5034706;28;20247;-64
2022/09/30 05:00:24;;;;;;;;;;;16.20;93.50;;;;;;5032706;28;20182;-65
2022/09/30 05:02:50;;;;;;;;;;;16.20;93.50;;;;;;5033069;28;20187;-64
2022/09/30 05:05:19;;;;;;;;;;;16.20;93.40;;;;;;5031969;28;20007;-64
2022/09/30 05:07:48;;;;;;;;;;;16.20;93.40;;;;;;5032208;28;19920;-64
2022/09/30 05:10:16;;;;;;;;;;;16.20;93.30;;;;;;5031233;28;20139;-65
2022/09/30 05:12:44;;;;;;;;;;;16.20;93.30;;;;;;5029331;28;19920;-64
2022/09/30 05:15:09;;;;;;;;;;;16.20;93.30;;;;;;5039304;28;19924;-65
2022/09/30 05:17:35;;;;;;;;;;;16.20;93.30;;;;;;5050499;28;20190;-65
2022/09/30 05:20:01;;;;;;;;;;;16.20;93.20;;;;;;5049433;28;19921;-64
2022/09/30 05:22:27;;;;;;;;;;;16.20;93.20;;;;;;5047607;28;19920;-65
2022/09/30 05:24:54;;;;;;;;;;;16.20;93.20;;;;;;5046842;28;20275;-64
2022/09/30 05:27:21;;;;;;;;;;;16.20;93.10;;;;;;5049808;28;19916;-64
2022/09/30 05:29:47;;;;;;;;;;;16.20;93.10;;;;;;5050021;28;20011;-65
2022/09/30 05:32:12;;;;;;;;;;;16.20;93.10;;;;;;5048084;28;19919;-65
2022/09/30 05:34:38;;;;;;;;;;;16.20;93.00;;;;;;5049408;28;20222;-64
2022/09/30 05:37:08;;;;;;;;;;;16.20;93.00;;;;;;5047111;28;19917;-64
2022/09/30 05:39:34;;;;;;;;;;;16.20;93.00;;;;;;5043464;28;19916;-65
2022/09/30 05:42:03;;;;;;;;;;;16.20;93.10;;;;;;5045587;28;20388;-64
2022/09/30 05:44:28;;;;;;;;;;;16.20;93.10;;;;;;5046623;28;19908;-64
2022/09/30 05:46:54;;;;;;;;;;;16.20;93.20;;;;;;5049405;28;19927;-64
2022/09/30 05:49:23;;;;;;;;;;;16.30;93.40;;;;;;5048832;28;19916;-64
2022/09/30 05:51:49;;;;;;;;;;;16.30;93.40;;;;;;5051502;28;19912;-64
2022/09/30 05:54:14;;;;;;;;;;;16.30;93.40;;;;;;5049577;28;20116;-64
2022/09/30 05:56:40;;;;;;;;;;;16.30;93.40;;;;;;5049200;28;19908;-65
2022/09/30 05:59:08;;;;;;;;;;;16.30;93.40;;;;;;5049251;28;20190;-64
2022/09/30 06:01:37;;;;;;;;;;;16.30;93.40;;;;;;5049656;28;19908;-64
2022/09/30 06:04:06;;;;;;;;;;;16.40;93.40;;;;;;5048668;28;19916;-65
2022/09/30 06:06:34;;;;;;;;;;;16.40;93.40;;;;;;5049400;28;20164;-64
2022/09/30 06:09:00;;;;;;;;;;;16.40;93.40;;;;;;5048412;28;20198;-65
2022/09/30 06:11:26;;;;;;;;;;;16.40;93.60;;;;;;5051769;28;20266;-65
2022/09/30 06:13:51;;;;;;;;;;;16.40;93.30;;;;;;5048318;28;19938;-65
2022/09/30 06:16:18;;;;;;;;;;;16.50;93.30;;;;;;5046964;28;20122;-65
2022/09/30 06:18:47;;;;;;;;;;;16.50;93.30;;;;;;5047581;28;20169;-65
2022/09/30 06:21:14;;;;;;;;;;;16.90;92.80;;;;;;5049151;28;19940;-65
2022/09/30 06:23:40;;;;;;;;;;;17.50;91.00;;;;;;5048408;28;19909;-65
2022/09/30 06:26:07;;;;;;;;;;;18.10;87.90;;;;;;5045713;28;20155;-65
2022/09/30 06:28:34;;;;;;;;;;;18.50;84.00;;;;;;5048591;28;20110;-65
2022/09/30 06:31:00;;;;;;;;;;;18.90;80.60;;;;;;5050145;28;19913;-65
2022/09/30 06:33:26;;;;;;;;;;;19.30;77.50;;;;;;5052509;28;19915;-65
2022/09/30 06:35:52;;;;;;;;;;;19.60;74.70;;;;;;5051205;28;20273;-65
2022/09/30 06:38:18;;;;;;;;;;;19.90;72.30;;;;;;5050507;28;19958;-65
2022/09/30 06:40:44;;;;;;;;;;;20.20;69.80;;;;;;5051194;28;19955;-64
2022/09/30 06:43:10;;;;;;;;;;;20.40;67.60;;;;;;5048434;28;19909;-65
2022/09/30 06:45:36;;;;;;;;;;;20.70;65.50;;;;;;5047062;28;19908;-64
2022/09/30 06:48:04;;;;;;;;;;;21.00;63.90;;;;;;5048117;28;19915;-65
2022/09/30 06:50:30;;;;;;;;;;;21.20;62.50;;;;;;5048570;28;20036;-64
2022/09/30 06:52:59;;;;;;;;;;;21.40;60.80;;;;;;5049093;28;20329;-65
2022/09/30 06:55:25;;;;;;;;;;;21.70;59.60;;;;;;5047948;28;19999;-64
2022/09/30 06:57:52;;;;;;;;;;;22.00;58.80;;;;;;5047855;28;19934;-64
2022/09/30 07:00:17;;;;;;;;;;;22.20;57.90;;;;;;5047313;28;19916;-65
2022/09/30 07:02:43;;;;;;;;;;;22.40;57.20;;;;;;5047602;28;19915;-66
2022/09/30 07:05:09;;;;;;;;;;;22.60;56.60;;;;;;5047685;28;20082;-64
2022/09/30 07:07:37;;;;;;;;;;;22.80;55.90;;;;;;5048473;28;20503;-66
2022/09/30 07:10:06;;;;;;;;;;;23.00;55.50;;;;;;5049759;28;19908;-65
2022/09/30 07:12:35;;;;;;;;;;;23.10;55.10;;;;;;5050775;28;19912;-65
2022/09/30 07:15:04;;;;;;;;;;;23.30;54.70;;;;;;5050824;28;19995;-65
2022/09/30 07:17:34;;;;;;;;;;;23.50;54.30;;;;;;5048789;28;20325;-65
2022/09/30 07:20:02;;;;;;;;;;;23.60;53.90;;;;;;5048459;28;19912;-64
2022/09/30 07:22:33;;;;;;;;;;;23.80;53.50;;;;;;5047586;28;19999;-64
2022/09/30 07:25:00;;;;;;;;;;;24.00;53.10;;;;;;5053600;28;19986;-65
2022/09/30 07:27:26;;;;;;;;;;;24.20;52.80;;;;;;5054733;28;19948;-64
2022/09/30 07:29:53;;;;;;;;;;;24.30;52.30;;;;;;5053285;28;20069;-66
2022/09/30 07:32:20;;;;;;;;;;;24.50;52.00;;;;;;5054101;28;19916;-64
2022/09/30 07:34:46;;;;;;;;;;;24.70;51.60;;;;;;5054212;28;20425;-66
2022/09/30 07:37:13;;;;;;;;;;;24.80;51.20;;;;;;5054747;28;19917;-64
2022/09/30 07:39:40;;;;;;;;;;;25.00;51.00;;;;;;5055326;28;19919;-65
2022/09/30 07:42:06;;;;;;;;;;;25.20;50.60;;;;;;5053942;28;20187;-66
2022/09/30 07:44:40;;;;;;;;;;;25.40;50.20;;;;;;5054751;28;20243;-66
2022/09/30 07:47:09;;;;;;;;;;;25.60;49.90;;;;;;5055445;28;20301;-65
2022/09/30 07:49:35;;;;;;;;;;;25.90;49.50;;;;;;5054821;28;20178;-65
2022/09/30 07:52:01;;;;;;;;;;;26.00;49.20;;;;;;5052414;28;20216;-65
2022/09/30 07:54:31;;;;;;;;;;;26.20;48.90;;;;;;5053132;28;20072;-64
2022/09/30 07:56:59;;;;;;;;;;;26.30;48.60;;;;;;5053385;28;20309;-65
2022/09/30 07:59:27;;;;;;;;;;;26.40;48.50;;;;;;5053854;28;20295;-65
2022/09/30 08:01:53;;;;;;;;;;;26.50;48.20;;;;;;5052613;28;19912;-65
2022/09/30 08:04:19;;;;;;;;;;;26.60;48.10;;;;;;5052061;28;19908;-65
2022/09/30 08:06:46;;;;;;;;;;;26.70;47.90;;;;;;5052446;28;20288;-66
2022/09/30 08:09:13;;;;;;;;;;;26.80;47.70;;;;;;5051791;28;20282;-65
2022/09/30 08:11:41;;;;;;;;;;;26.90;47.60;;;;;;5052146;28;19954;-65
2022/09/30 08:14:12;;;;;;;;;;;27.00;47.50;;;;;;5053759;28;19910;-65
2022/09/30 08:16:38;;;;;;;;;;;27.10;47.40;;;;;;5051508;28;20074;-65
2022/09/30 08:19:04;;;;;;;;;;;27.20;47.30;;;;;;5051828;28;20186;-65
2022/09/30 08:21:29;;;;;;;;;;;27.20;47.10;;;;;;5052117;28;19935;-65
2022/09/30 08:23:58;;;;;;;;;;;27.40;47.00;;;;;;5052635;28;20179;-65
2022/09/30 08:26:24;;;;;;;;;;;27.50;46.80;;;;;;5050886;28;20260;-65
2022/09/30 08:28:49;;;;;;;;;;;27.60;46.80;;;;;;5050978;28;19909;-65
2022/09/30 08:31:20;;;;;;;;;;;27.70;46.60;;;;;;5052878;28;19912;-66
2022/09/30 08:33:45;;;;;;;;;;;27.80;46.50;;;;;;5052518;28;20296;-66
2022/09/30 08:36:34;;;;;;;;;;;27.80;46.40;;;;;;5051841;28;19924;-66
2022/09/30 08:39:04;;;;;;;;;;;27.90;46.30;;;;;;5052071;28;20167;-66
2022/09/30 08:41:48;;;;;;;;;;;28.00;46.30;;;;;;5052783;28;20221;-66
2022/09/30 08:44:26;;;;;;;;;;;28.10;46.20;;;;;;5050338;28;20155;-66
2022/09/30 08:47:02;;;;;;;;;;;28.20;46.10;;;;;;5052461;28;19909;-66
2022/09/30 08:49:50;;;;;;;;;;;28.30;46.00;;;;;;5051503;28;20266;-65
2022/09/30 08:52:21;;;;;;;;;;;28.40;45.80;;;;;;5049071;28;19927;-66
2022/09/30 08:54:49;;;;;;;;;;;28.50;45.70;;;;;;5047987;28;20405;-66
2022/09/30 08:57:15;;;;;;;;;;;28.60;45.60;;;;;;5050407;28;19908;-66
2022/09/30 08:59:50;;;;;;;;;;;28.60;45.40;;;;;;5050770;28;19908;-66
2022/09/30 09:02:26;;;;;;;;;;;28.70;45.30;;;;;;5050227;28;19912;-66
2022/09/30 09:04:56;;;;;;;;;;;28.90;45.30;;;;;;5047689;28;20084;-66
2022/09/30 09:07:44;;;;;;;;;;;28.90;45.10;;;;;;5051402;28;19909;-66
2022/09/30 09:10:16;;;;;;;;;;;29.00;45.10;;;;;;5051101;28;19917;-66
2022/09/30 09:12:51;;;;;;;;;;;29.10;45.00;;;;;;5052741;28;19912;-66
2022/09/30 09:15:18;;;;;;;;;;;29.10;44.90;;;;;;5050882;28;19908;-66
2022/09/30 09:17:59;;;;;;;;;;;29.20;44.80;;;;;;5052865;28;19924;-66
2022/09/30 09:20:30;;;;;;;;;;;29.30;44.80;;;;;;5052126;28;19973;-66
2022/09/30 09:23:01;;;;;;;;;;;29.30;44.60;;;;;;5050234;28;20254;-66
2022/09/30 09:25:27;;;;;;;;;;;29.30;44.60;;;;;;5047752;28;19962;-66
2022/09/30 09:28:01;;;;;;;;;;;29.30;45.00;;;;;;5048236;28;20228;-66
2022/09/30 09:30:28;;;;;;;;;;;29.30;44.60;;;;;;5052477;28;19908;-66
2022/09/30 09:32:58;;;;;;;;;;;29.30;44.50;;;;;;5052694;28;20262;-66
2022/09/30 09:35:33;;;;;;;;;;;29.30;44.60;;;;;;5052688;28;20274;-64
2022/09/30 09:38:24;;;;;;;;;;;29.20;44.60;;;;;;5052068;28;19925;-63
2022/09/30 09:40:56;;;;;;;;;;;29.10;44.60;;;;;;5048782;28;19909;-64
2022/09/30 09:43:42;;;;;;;;;;;28.70;44.70;;;;;;5047919;28;19908;-64
2022/09/30 09:46:14;;;;;;;;;;;28.10;45.00;;;;;;5047625;28;20209;-64
2022/09/30 09:48:43;;;;;;;;;;;27.20;45.40;;;;;;5047906;28;19908;-64
2022/09/30 09:51:20;;;;;;;;;;;26.40;46.00;;;;;;5048017;28;19924;-65
2022/09/30 09:53:51;;;;;;;;;;;25.70;46.70;;;;;;5050637;28;19962;-65
2022/09/30 09:56:18;;;;;;;;;;;25.10;47.50;;;;;;5049271;28;19916;-65
2022/09/30 09:59:07;;;;;;;;;;;24.60;48.20;;;;;;5049209;28;19944;-65
2022/09/30 10:01:34;;;;;;;;;;;24.10;48.80;;;;;;5049477;28;19974;-65
2022/09/30 10:04:17;;;;;;;;;;;23.70;49.50;;;;;;5050232;28;19938;-65
2022/09/30 10:06:48;;;;;;;;;;;23.40;50.00;;;;;;5049599;28;20275;-65
2022/09/30 10:09:23;;;;;;;;;;;23.20;50.40;;;;;;5047720;28;20313;-65
2022/09/30 10:11:48;;;;;;;;;;;23.00;50.80;;;;;;5046606;28;20186;-65
2022/09/30 10:14:19;;;;;;;;;;;22.80;51.20;;;;;;5047879;28;19982;-65
2022/09/30 10:16:45;;;;;;;;;;;22.70;51.50;;;;;;5047873;28;19958;-65
2022/09/30 10:19:19;;;;;;;;;;;22.60;51.90;;;;;;5047972;28;20158;-65
2022/09/30 10:21:45;;;;;;;;;;;22.50;52.20;;;;;;5048628;28;19919;-65
2022/09/30 10:24:30;;;;;;;;;;;22.40;52.60;;;;;;5048003;28;19909;-65
2022/09/30 10:26:55;;;;;;;;;;;22.30;52.90;;;;;;5049423;28;19913;-65
2022/09/30 10:29:30;;;;;;;;;;;22.20;53.40;;;;;;5047834;28;20187;-65
2022/09/30 10:31:56;;;;;;;;;;;22.10;53.90;;;;;;5048718;28;19916;-65
2022/09/30 10:34:30;;;;;;;;;;;22.00;54.60;;;;;;5049516;28;19999;-64
2022/09/30 10:36:57;;;;;;;;;;;22.00;55.30;;;;;;5050018;28;19924;-66
2022/09/30 10:39:40;;;;;;;;;;;21.90;55.80;;;;;;5048427;28;19908;-66
2022/09/30 10:42:08;;;;;;;;;;;21.80;56.40;;;;;;5049478;28;19917;-65
2022/09/30 10:44:54;;;;;;;;;;;21.80;56.90;;;;;;5048174;28;20037;-65
2022/09/30 10:47:21;;;;;;;;;;;21.70;57.40;;;;;;5047446;28;20240;-66
2022/09/30 10:49:56;;;;;;;;;;;21.60;57.90;;;;;;5047876;28;19909;-65
2022/09/30 10:52:26;;;;;;;;;;;21.60;58.30;;;;;;5049733;28;20248;-65
2022/09/30 10:54:53;;;;;;;;;;;21.50;58.50;;;;;;5049831;28;20048;-64
2022/09/30 10:57:19;;;;;;;;;;;21.40;59.00;;;;;;5048210;28;20313;-65
2022/09/30 10:59:45;;;;;;;;;;;21.40;59.30;;;;;;5049707;28;19912;-65
2022/09/30 11:02:33;;;;;;;;;;;21.30;59.70;;;;;;5047184;28;20073;-65
2022/09/30 11:05:06;;;;;;;;;;;21.30;60.20;;;;;;5046530;28;19917;-65
2022/09/30 11:07:34;;;;;;;;;;;21.20;60.70;;;;;;5047864;28;19952;-65
2022/09/30 11:10:00;;;;;;;;;;;21.20;61.00;;;;;;5046289;28;20079;-64
2022/09/30 11:12:44;;;;;;;;;;;21.20;61.40;;;;;;5042826;28;19982;-64
2022/09/30 11:15:24;;;;;;;;;;;21.10;61.80;;;;;;5044294;28;20079;-65
2022/09/30 11:17:50;;;;;;;;;;;21.10;62.50;;;;;;5044908;28;19909;-65
2022/09/30 11:20:24;;;;;;;;;;;21.00;63.00;;;;;;5044645;28;20286;-65
2022/09/30 11:22:49;;;;;;;;;;;21.00;63.70;;;;;;5045106;28;20011;-65
2022/09/30 11:25:23;;;;;;;;;;;20.90;64.30;;;;;;5043334;28;20213;-65
2022/09/30 11:27:57;;;;;;;;;;;20.90;64.50;;;;;;5046068;28;20157;-65
2022/09/30 11:30:34;;;;;;;;;;;20.90;65.20;;;;;;5045675;28;20133;-65
2022/09/30 11:33:29;;;;;;;;;;;20.80;65.30;;;;;;5044469;28;20065;-65
2022/09/30 11:35:55;;;;;;;;;;;20.80;65.90;;;;;;5009638;28;19912;-65
2022/09/30 11:38:33;;;;;;;;;;;20.80;66.10;;;;;;5046643;28;19909;-65
2022/09/30 11:41:17;;;;;;;;;;;20.80;66.30;;;;;;5044070;28;19916;-65
2022/09/30 11:43:42;;;;;;;;;;;20.80;66.50;;;;;;5046705;28;20172;-65
2022/09/30 11:46:27;;;;;;;;;;;20.80;66.90;;;;;;5046379;28;20049;-65
2022/09/30 11:49:13;;;;;;;;;;;20.70;66.90;;;;;;5048943;28;19965;-65
2022/09/30 11:51:38;;;;;;;;;;;20.70;67.00;;;;;;5047599;28;19997;-65
2022/09/30 11:54:23;;;;;;;;;;;20.70;67.20;;;;;;5049865;28;20236;-63
2022/09/30 11:56:51;;;;;;;;;;;20.70;67.30;;;;;;5051262;28;19909;-64
2022/09/30 11:59:53;;;;;;;;;;;20.70;67.60;;;;;;5050149;28;19995;-64
2022/09/30 12:02:28;;;;;;;;;;;20.60;67.80;;;;;;4950217;28;19910;-64
2022/09/30 12:04:56;;;;;;;;;;;20.60;68.10;;;;;;5034512;28;20305;-64
2022/09/30 12:07:35;;;;;;;;;;;20.60;68.30;;;;;;5050088;28;19909;-64
2022/09/30 12:10:07;;;;;;;;;;;20.60;68.70;;;;;;5050980;28;19930;-64
2022/09/30 12:12:32;;;;;;;;;;;20.60;69.00;;;;;;5050086;28;19912;-64
2022/09/30 12:15:04;;;;;;;;;;;20.50;69.50;;;;;;5051271;28;20190;-64
2022/09/30 12:17:37;;;;;;;;;;;20.50;70.00;;;;;;5050062;28;20065;-64
2022/09/30 12:20:25;;;;;;;;;;;20.50;70.30;;;;;;5051587;28;20254;-65
2022/09/30 12:22:52;;;;;;;;;;;20.50;70.60;;;;;;5036670;28;19916;-65
2022/09/30 12:25:28;;;;;;;;;;;20.50;70.80;;;;;;5052209;28;20119;-65
2022/09/30 12:30:16;;;;;;;;;;;20.40;71.20;;;;;;5052339;28;19908;-63
2022/09/30 12:31:00;;;;;;;;;;;20.40;71.50;;;;;;5070361;28;19961;-64
2022/09/30 12:33:33;;;;;;;;;;;20.40;71.90;;;;;;5053830;28;19916;-64
2022/09/30 12:36:01;;;;;;;;;;;20.40;72.20;;;;;;5052436;28;19925;-63
2022/09/30 12:38:45;;;;;;;;;;;20.30;72.50;;;;;;5050565;28;19912;-64
2022/09/30 12:46:20;;;;;;;;;;;20.30;74.00;;;;;;5072930;28;20194;-10
2022/09/30 12:48:58;;;;;;;;;;;20.30;73.80;;;;;;5076586;28;20145;-10
2022/09/30 12:51:30;;;;;;;;;;;20.30;73.90;;;;;;5071217;28;20009;-11
2022/09/30 12:53:57;;;;;;;;;;;20.30;74.20;;;;;;5059195;28;19908;-11
2022/09/30 12:56:26;;;;;;;;;;;20.20;74.50;;;;;;5076610;28;19916;-11
2022/09/30 12:58:52;;;;;;;;;;;20.20;74.90;;;;;;5077256;28;19912;-11
2022/09/30 13:01:22;;;;;;;;;;;20.20;75.20;;;;;;5076249;28;20284;-11
2022/09/30 13:03:49;;;;;;;;;;;20.10;75.40;;;;;;5076076;28;19909;-11
2022/09/30 13:06:15;;;;;;;;;;;20.10;75.50;;;;;;5076189;28;19908;-11
2022/09/30 13:09:04;;;;;;;;;;;20.10;75.60;;;;;;5076691;28;19912;-11
2022/09/30 13:11:56;;;;;;;;;;;20.10;75.70;;;;;;5058161;28;20281;-11
2022/09/30 13:14:23;;;;;;;;;;;20.00;75.90;;;;;;5063347;28;19912;-11
2022/09/30 13:17:02;;;;;;;;;;;20.00;76.10;;;;;;5057569;28;19909;-11
2022/09/30 13:19:39;;;;;;;;;;;20.00;76.50;;;;;;5056977;28;20479;-11
2022/09/30 13:22:21;;;;;;;;;;;20.00;76.50;;;;;;5057485;28;19919;-11
2022/09/30 13:25:02;;;;;;;;;;;20.00;76.60;;;;;;5075233;28;19913;-11
2022/09/30 13:27:36;;;;;;;;;;;20.00;76.80;;;;;;5074586;28;19994;-11
2022/09/30 13:30:17;;;;;;;;;;;20.00;77.00;;;;;;5075946;28;19931;-11
2022/09/30 13:32:49;;;;;;;;;;;20.00;77.00;;;;;;5075054;28;19912;-11
2022/09/30 13:35:24;;;;;;;;;;;20.00;77.40;;;;;;5075858;28;19920;-11
2022/09/30 13:38:09;;;;;;;;;;;19.90;77.90;;;;;;5074883;28;19908;-11
2022/09/30 13:40:39;;;;;;;;;;;19.90;78.50;;;;;;5075080;28;20291;-11
2022/09/30 13:43:09;;;;;;;;;;;19.90;79.30;;;;;;5076196;28;20194;-11
2022/09/30 13:45:38;;;;;;;;;;;19.90;80.20;;;;;;5058805;28;19969;-11
2022/09/30 13:48:09;;;;;;;;;;;19.90;81.50;;;;;;5058682;28;19909;-11
2022/09/30 13:50:52;;;;;;;;;;;19.90;81.50;;;;;;5075357;28;19913;-11
2022/09/30 13:53:28;;;;;;;;;;;19.90;81.90;;;;;;5072637;28;20193;-11
2022/09/30 13:55:55;;;;;;;;;;;19.90;82.10;;;;;;5040176;28;19909;-11
2022/09/30 13:58:30;;;;;;;;;;;19.90;82.20;;;;;;5057030;28;19923;-11
2022/09/30 14:01:15;;;;;;;;;;;19.90;82.40;;;;;;5063611;28;19920;-11
2022/09/30 14:04:05;;;;;;;;;;;19.90;82.50;;;;;;5042112;28;19908;-11
2022/09/30 14:06:46;;;;;;;;;;;20.00;82.50;;;;;;5066604;28;19958;-11
2022/09/30 14:09:28;;;;;;;;;;;20.00;82.40;;;;;;5071407;28;19999;-11
2022/09/30 14:12:15;;;;;;;;;;;20.00;82.40;;;;;;5050941;28;19991;-11
2022/09/30 14:15:05;;;;;;;;;;;20.00;82.50;;;;;;5049767;28;19917;-11
2022/09/30 14:17:50;;;;;;;;;;;19.90;82.40;;;;;;5052217;28;19932;-11
2022/09/30 14:20:27;;;;;;;;;;;19.90;82.30;;;;;;5055868;28;19920;-11
2022/09/30 14:22:54;;;;;;;;;;;19.90;82.10;;;;;;5050609;28;20496;-11
2022/09/30 14:25:20;;;;;;;;;;;20.00;82.00;;;;;;5055239;28;19916;-11
2022/09/30 14:28:07;;;;;;;;;;;20.00;81.80;;;;;;5060130;28;19909;-11
2022/09/30 14:31:06;;;;;;;;;;;20.00;81.90;;;;;;5067738;28;19913;-11
2022/09/30 14:33:30;;;;;;;;;;;20.00;81.90;;;;;;5058165;28;19928;-11
2022/09/30 14:35:59;;;;;;;;;;;20.00;81.80;;;;;;5070504;28;20373;-11
2022/09/30 14:38:27;;;;;;;;;;;19.90;81.80;;;;;;5073343;28;20072;-11
2022/09/30 14:40:55;;;;;;;;;;;19.90;82.10;;;;;;5055694;28;19987;-11
2022/09/30 14:43:22;;;;;;;;;;;19.90;82.30;;;;;;5051512;28;19917;-11
2022/09/30 14:45:54;;;;;;;;;;;19.90;82.40;;;;;;5053130;28;19916;-11